createdAt,value
2023-04-24T00:00:07.671Z,100.00
2023-04-24T00:02:35.985Z,100.00
2023-04-24T00:05:04.768Z,100.00
2023-04-24T00:07:32.936Z,100.00
2023-04-24T00:10:01.125Z,100.00
2023-04-24T00:12:29.625Z,100.00
2023-04-24T00:14:59.250Z,100.00
2023-04-24T00:17:27.415Z,100.00
2023-04-24T00:19:59.506Z,100.00
2023-04-24T00:22:28.408Z,100.00
2023-04-24T00:24:56.562Z,100.00
2023-04-24T00:27:24.908Z,100.00
2023-04-24T00:29:52.959Z,100.00
2023-04-24T00:32:22.405Z,100.00
2023-04-24T00:34:50.838Z,100.00
2023-04-24T00:37:19.045Z,100.00
2023-04-24T00:39:47.317Z,100.00
2023-04-24T00:42:15.404Z,100.00
2023-04-24T00:44:43.587Z,100.00
2023-04-24T00:47:13.297Z,100.00
2023-04-24T00:49:43.150Z,100.00
2023-04-24T00:52:11.880Z,100.00
2023-04-24T00:54:39.947Z,100.00
2023-04-24T00:57:08.336Z,100.00
2023-04-24T00:59:37.690Z,100.00
2023-04-24T01:02:06.855Z,100.00
2023-04-24T01:04:35.337Z,100.00
2023-04-24T01:07:05.829Z,100.00
2023-04-24T01:09:33.945Z,100.00
2023-04-24T01:12:02.713Z,100.00
2023-04-24T01:14:31.593Z,100.00
2023-04-24T01:17:01.575Z,100.00
2023-04-24T01:19:29.823Z,100.00
2023-04-24T01:22:01.639Z,100.00
2023-04-24T01:24:31.344Z,100.00
2023-04-24T01:26:59.595Z,100.00
2023-04-24T01:29:27.714Z,100.00
2023-04-24T01:31:58.790Z,100.00
2023-04-24T01:34:27.519Z,100.00
2023-04-24T01:36:57.138Z,100.00
2023-04-24T01:39:26.782Z,100.00
2023-04-24T01:41:56.572Z,100.00
2023-04-24T01:44:25.259Z,100.00
2023-04-24T01:46:55.201Z,100.00
2023-04-24T01:49:23.563Z,100.00
2023-04-24T01:51:51.706Z,100.00
2023-04-24T01:54:20.643Z,100.00
2023-04-24T01:56:49.301Z,100.00
2023-04-24T01:59:19.592Z,100.00
2023-04-24T02:01:47.672Z,100.00
2023-04-24T02:04:16.586Z,100.00
2023-04-24T02:06:44.748Z,100.00
2023-04-24T02:09:13.077Z,100.00
2023-04-24T02:11:41.249Z,100.00
2023-04-24T02:14:09.451Z,100.00
2023-04-24T02:16:39.056Z,100.00
2023-04-24T02:19:07.220Z,100.00
2023-04-24T02:21:35.626Z,100.00
2023-04-24T02:24:05.565Z,100.00
2023-04-24T02:26:34.139Z,100.00
2023-04-24T02:29:02.741Z,100.00
2023-04-24T02:31:30.984Z,100.00
2023-04-24T02:34:00.592Z,100.00
2023-04-24T02:36:28.684Z,100.00
2023-04-24T02:38:56.807Z,100.00
2023-04-24T02:41:24.873Z,100.00
2023-04-24T02:43:52.969Z,100.00
2023-04-24T02:46:21.062Z,100.00
2023-04-24T02:48:49.216Z,100.00
2023-04-24T02:51:18.649Z,100.00
2023-04-24T02:53:46.889Z,100.00
2023-04-24T02:56:14.969Z,100.00
2023-04-24T02:58:43.345Z,100.00
2023-04-24T03:01:11.769Z,100.00
2023-04-24T03:03:40.699Z,100.00
2023-04-24T03:06:09.097Z,100.00
2023-04-24T03:08:38.982Z,100.00
2023-04-24T03:11:07.097Z,100.00
2023-04-24T03:13:35.239Z,100.00
2023-04-24T03:16:03.492Z,100.00
2023-04-24T03:18:31.604Z,100.00
2023-04-24T03:21:03.094Z,100.00
2023-04-24T03:23:34.041Z,100.00
2023-04-24T03:26:04.031Z,100.00
2023-04-24T03:28:32.289Z,100.00
2023-04-24T03:31:01.267Z,100.00
2023-04-24T03:33:29.662Z,100.00
2023-04-24T03:35:58.209Z,100.00
2023-04-24T03:38:26.427Z,100.00
2023-04-24T03:40:54.586Z,100.00
2023-04-24T03:43:24.690Z,100.00
2023-04-24T03:45:53.189Z,100.00
2023-04-24T03:48:21.389Z,100.00
2023-04-24T03:50:50.704Z,100.00
2023-04-24T03:53:18.830Z,100.00
2023-04-24T03:55:47.030Z,100.00
2023-04-24T03:58:15.594Z,100.00
2023-04-24T04:00:45.636Z,100.00
2023-04-24T04:03:14.518Z,100.00
2023-04-24T04:05:42.975Z,100.00
2023-04-24T04:08:11.149Z,100.00
2023-04-24T04:10:39.348Z,100.00
2023-04-24T04:13:08.145Z,100.00
2023-04-24T04:15:36.779Z,100.00
2023-04-24T04:18:06.728Z,100.00
2023-04-24T04:20:35.075Z,100.00
2023-04-24T04:23:03.267Z,100.00
2023-04-24T04:25:31.282Z,100.00
2023-04-24T04:28:00.710Z,100.00
2023-04-24T04:30:30.537Z,100.00
2023-04-24T04:32:58.588Z,100.00
2023-04-24T04:35:28.409Z,100.00
2023-04-24T04:37:57.194Z,100.00
2023-04-24T04:40:25.440Z,100.00
2023-04-24T04:42:54.244Z,100.00
2023-04-24T04:45:22.841Z,100.00
2023-04-24T04:48:08.991Z,100.00
2023-04-24T04:50:38.571Z,100.00
2023-04-24T04:53:06.816Z,100.00
2023-04-24T04:55:35.020Z,100.00
2023-04-24T04:58:03.219Z,100.00
2023-04-24T05:00:36.568Z,100.00
2023-04-24T05:03:19.381Z,100.00
2023-04-24T05:05:50.599Z,100.00
2023-04-24T05:08:26.414Z,100.00
2023-04-24T05:10:56.515Z,100.00
2023-04-24T05:13:38.202Z,100.00
2023-04-24T05:16:07.125Z,100.00
2023-04-24T05:18:35.419Z,100.00
2023-04-24T05:21:05.506Z,100.00
2023-04-24T05:23:33.677Z,100.00
2023-04-24T05:26:01.998Z,100.00
2023-04-24T05:28:30.148Z,100.00
2023-04-24T05:30:58.395Z,100.00
2023-04-24T05:33:26.589Z,99.92
2023-04-24T05:35:55.988Z,100.00
2023-04-24T05:38:25.776Z,99.66
2023-04-24T05:40:53.913Z,100.00
2023-04-24T05:43:22.079Z,100.00
2023-04-24T05:45:50.657Z,100.00
2023-04-24T05:48:18.865Z,100.00
2023-04-24T05:50:49.151Z,100.00
2023-04-24T05:53:17.784Z,100.00
2023-04-24T05:55:47.821Z,100.00
2023-04-24T05:58:16.815Z,100.00
2023-04-24T06:00:47.387Z,99.82
2023-04-24T06:03:15.714Z,99.15
2023-04-24T06:05:44.135Z,100.00
2023-04-24T06:08:12.609Z,99.81
2023-04-24T06:10:41.373Z,99.55
2023-04-24T06:13:10.909Z,100.00
2023-04-24T06:15:39.459Z,98.12
2023-04-24T06:18:07.539Z,94.68
2023-04-24T06:20:35.580Z,94.89
2023-04-24T06:23:03.845Z,96.09
2023-04-24T06:25:32.180Z,96.57
2023-04-24T06:28:00.474Z,98.50
2023-04-24T06:30:30.142Z,100.00
2023-04-24T06:33:03.074Z,100.00
2023-04-24T06:35:39.233Z,99.43
2023-04-24T06:38:07.797Z,98.20
2023-04-24T06:40:36.142Z,98.69
2023-04-24T06:43:04.260Z,97.83
2023-04-24T06:45:33.761Z,95.72
2023-04-24T06:48:02.067Z,94.79
2023-04-24T06:50:30.254Z,94.24
2023-04-24T06:52:58.525Z,94.90
2023-04-24T06:55:26.631Z,93.42
2023-04-24T06:57:55.165Z,96.47
2023-04-24T07:00:25.409Z,94.30
2023-04-24T07:02:55.229Z,95.43
2023-04-24T07:05:24.490Z,94.28
2023-04-24T07:07:53.574Z,93.92
2023-04-24T07:10:22.342Z,92.40
2023-04-24T07:12:50.710Z,92.45
2023-04-24T07:15:19.091Z,90.50
2023-04-24T07:17:47.269Z,89.84
2023-04-24T07:20:24.465Z,89.59
2023-04-24T07:22:55.030Z,89.50
2023-04-24T07:25:23.376Z,85.48
2023-04-24T07:27:51.639Z,84.12
2023-04-24T07:30:19.859Z,82.37
2023-04-24T07:32:48.050Z,83.56
2023-04-24T07:35:17.755Z,82.64
2023-04-24T07:37:47.050Z,79.90
2023-04-24T07:40:15.352Z,77.92
2023-04-24T07:42:44.980Z,75.91
2023-04-24T07:45:13.238Z,75.72
2023-04-24T07:47:41.594Z,76.43
2023-04-24T07:50:10.641Z,75.67
2023-04-24T07:52:40.363Z,75.16
2023-04-24T07:55:09.557Z,75.43
2023-04-24T07:57:38.357Z,75.81
2023-04-24T08:00:07.980Z,73.93
2023-04-24T08:02:36.450Z,72.56
2023-04-24T08:05:05.397Z,73.00
2023-04-24T08:07:33.854Z,74.04
2023-04-24T08:10:03.524Z,73.02
2023-04-24T08:12:32.137Z,72.62
2023-04-24T08:15:00.554Z,72.61
2023-04-24T08:17:28.623Z,69.71
2023-04-24T08:20:02.697Z,72.11
2023-04-24T08:22:31.637Z,70.83
2023-04-24T08:25:02.021Z,73.26
2023-04-24T08:27:31.514Z,71.80
2023-04-24T08:30:00.116Z,71.63
2023-04-24T08:32:30.241Z,73.43
2023-04-24T08:35:00.286Z,70.24
2023-04-24T08:37:29.435Z,69.83
2023-04-24T08:39:57.565Z,70.97
2023-04-24T08:42:26.181Z,73.85
2023-04-24T08:44:57.839Z,73.39
2023-04-24T08:47:28.482Z,70.43
2023-04-24T08:49:56.818Z,70.83
2023-04-24T08:52:25.486Z,70.21
2023-04-24T08:54:55.730Z,70.25
2023-04-24T08:57:24.562Z,72.03
2023-04-24T08:59:53.469Z,70.98
2023-04-24T09:02:23.667Z,69.46
2023-04-24T09:04:54.769Z,71.29
2023-04-24T09:07:27.128Z,69.72
2023-04-24T09:09:56.794Z,70.64
2023-04-24T09:12:24.957Z,70.61
2023-04-24T09:14:55.128Z,70.61
2023-04-24T09:17:28.094Z,69.84
2023-04-24T09:19:56.437Z,69.31
2023-04-24T09:22:24.766Z,69.49
2023-04-24T09:25:04.126Z,69.81
2023-04-24T09:27:33.200Z,69.78
2023-04-24T09:30:02.099Z,71.67
2023-04-24T09:32:32.977Z,67.82
2023-04-24T09:35:13.444Z,66.72
2023-04-24T09:37:43.675Z,65.75
2023-04-24T09:40:14.453Z,66.09
2023-04-24T09:42:45.458Z,67.33
2023-04-24T09:45:15.402Z,66.88
2023-04-24T09:47:47.307Z,65.41
2023-04-24T09:50:17.868Z,66.09
2023-04-24T09:52:57.873Z,65.46
2023-04-24T09:55:26.593Z,65.35
2023-04-24T09:57:55.957Z,63.09
2023-04-24T10:00:25.987Z,63.11
2023-04-24T10:02:59.201Z,62.39
2023-04-24T10:05:30.548Z,64.22
2023-04-24T10:07:59.671Z,64.97
2023-04-24T10:10:28.818Z,67.02
2023-04-24T10:12:57.609Z,66.58
2023-04-24T10:15:26.561Z,67.60
2023-04-24T10:17:57.456Z,66.66
2023-04-24T10:20:30.229Z,64.83
2023-04-24T10:22:59.369Z,65.49
2023-04-24T10:25:29.276Z,66.77
2023-04-24T10:28:00.666Z,65.68
2023-04-24T10:30:30.205Z,66.76
2023-04-24T10:32:58.778Z,65.59
2023-04-24T10:35:28.545Z,66.28
2023-04-24T10:38:01.051Z,65.42
2023-04-24T10:40:32.499Z,66.53
2023-04-24T10:43:00.917Z,67.36
2023-04-24T10:45:29.131Z,66.47
2023-04-24T10:48:04.308Z,65.98
2023-04-24T10:50:47.510Z,66.69
2023-04-24T10:53:18.557Z,65.26
2023-04-24T10:55:49.269Z,65.03
2023-04-24T10:58:18.786Z,64.55
2023-04-24T11:00:58.704Z,64.13
2023-04-24T11:03:30.285Z,63.29
2023-04-24T11:06:02.364Z,60.78
2023-04-24T11:08:39.394Z,62.48
2023-04-24T11:11:12.385Z,64.68
2023-04-24T11:14:09.349Z,64.82
2023-04-24T11:16:41.978Z,63.40
2023-04-24T11:19:12.245Z,65.64
2023-04-24T11:21:46.120Z,65.71
2023-04-24T11:24:39.474Z,66.06
2023-04-24T11:27:10.181Z,66.69
2023-04-24T11:29:44.082Z,62.40
2023-04-24T11:32:26.823Z,62.23
2023-04-24T11:34:57.497Z,62.48
2023-04-24T11:37:29.621Z,62.29
2023-04-24T11:40:01.179Z,61.54
2023-04-24T11:42:31.318Z,61.10
2023-04-24T11:45:01.388Z,60.12
2023-04-24T11:47:35.088Z,60.05
2023-04-24T11:50:04.844Z,59.47
2023-04-24T11:52:35.913Z,60.42
2023-04-24T11:55:04.872Z,63.63
2023-04-24T11:57:35.493Z,65.51
2023-04-24T12:00:06.257Z,65.29
2023-04-24T12:02:36.926Z,63.40
2023-04-24T12:05:07.275Z,61.89
2023-04-24T12:07:44.294Z,60.97
2023-04-24T12:10:12.665Z,61.50
2023-04-24T12:12:41.039Z,61.61
2023-04-24T12:15:10.623Z,64.62
2023-04-24T12:17:43.318Z,64.30
2023-04-24T12:20:12.808Z,63.85
2023-04-24T12:22:49.717Z,63.95
2023-04-24T12:25:19.823Z,64.76
2023-04-24T12:27:48.777Z,65.25
2023-04-24T12:30:18.787Z,63.66
2023-04-24T12:32:49.147Z,64.28
2023-04-24T12:35:23.146Z,62.60
2023-04-24T12:37:52.817Z,63.54
2023-04-24T12:40:23.021Z,62.08
2023-04-24T12:42:52.638Z,62.03
2023-04-24T12:45:24.459Z,60.52
2023-04-24T12:47:52.678Z,60.88
2023-04-24T12:50:21.561Z,59.50
2023-04-24T12:52:50.548Z,58.20
2023-04-24T12:55:20.144Z,57.83
2023-04-24T12:57:48.541Z,56.31
2023-04-24T13:00:19.988Z,56.10
2023-04-24T13:02:48.614Z,57.18
2023-04-24T13:05:16.850Z,56.92
2023-04-24T13:07:45.128Z,56.53
2023-04-24T13:10:14.371Z,54.74
2023-04-24T13:12:46.477Z,55.73
2023-04-24T13:15:15.079Z,56.25
2023-04-24T13:17:43.392Z,54.64
2023-04-24T13:20:12.086Z,54.69
2023-04-24T13:22:40.328Z,54.91
2023-04-24T13:25:10.008Z,54.81
2023-04-24T13:27:40.626Z,54.74
2023-04-24T13:30:13.940Z,56.40
2023-04-24T13:32:42.361Z,57.00
2023-04-24T13:35:11.194Z,57.07
2023-04-24T13:37:39.889Z,56.75
2023-04-24T13:40:09.531Z,57.36
2023-04-24T13:42:37.831Z,56.27
2023-04-24T13:45:17.783Z,56.50
2023-04-24T13:47:59.055Z,57.08
2023-04-24T13:50:30.504Z,56.43
2023-04-24T13:53:02.619Z,55.49
2023-04-24T13:55:33.566Z,56.45
2023-04-24T13:58:02.464Z,55.77
2023-04-24T14:00:31.099Z,56.56
2023-04-24T14:03:00.941Z,55.76
2023-04-24T14:05:29.388Z,55.65
2023-04-24T14:07:57.734Z,56.13
2023-04-24T14:10:26.652Z,55.82
2023-04-24T14:12:54.912Z,55.73
2023-04-24T14:15:23.330Z,54.62
2023-04-24T14:17:52.193Z,55.74
2023-04-24T14:20:22.842Z,55.64
2023-04-24T14:22:51.412Z,55.80
2023-04-24T14:25:20.617Z,56.30
2023-04-24T14:27:49.417Z,55.62
2023-04-24T14:30:17.805Z,52.82
2023-04-24T14:32:48.312Z,52.45
2023-04-24T14:35:17.128Z,53.07
2023-04-24T14:37:49.454Z,53.07
2023-04-24T14:40:39.673Z,52.43
2023-04-24T14:43:06.399Z,52.14
2023-04-24T14:45:37.671Z,51.71
2023-04-24T14:48:06.531Z,50.26
2023-04-24T14:50:35.216Z,50.99
2023-04-24T14:53:05.248Z,50.69
2023-04-24T14:55:35.230Z,50.67
2023-04-24T14:58:03.457Z,50.78
2023-04-24T15:00:31.842Z,51.63
2023-04-24T15:03:01.236Z,51.68
2023-04-24T15:05:33.479Z,52.05
2023-04-24T15:08:09.521Z,50.56
2023-04-24T15:10:38.225Z,49.08
2023-04-24T15:13:06.965Z,48.83
2023-04-24T15:15:35.211Z,49.41
2023-04-24T15:18:03.885Z,50.46
2023-04-24T15:20:33.208Z,50.55
2023-04-24T15:23:04.031Z,50.31
2023-04-24T15:25:34.971Z,50.45
2023-04-24T15:28:05.997Z,51.01
2023-04-24T15:30:34.857Z,51.73
2023-04-24T15:33:06.829Z,51.28
2023-04-24T15:35:37.075Z,52.53
2023-04-24T15:38:05.751Z,52.73
2023-04-24T15:40:36.396Z,53.70
2023-04-24T15:43:04.667Z,53.94
2023-04-24T15:45:33.376Z,54.26
2023-04-24T15:48:03.134Z,54.50
2023-04-24T15:50:32.951Z,54.70
2023-04-24T15:53:01.598Z,55.09
2023-04-24T15:55:30.621Z,56.06
2023-04-24T15:58:00.322Z,57.54
2023-04-24T16:00:34.394Z,58.93
2023-04-24T16:03:03.230Z,60.20
2023-04-24T16:05:31.652Z,60.30
2023-04-24T16:08:00.260Z,60.23
2023-04-24T16:10:29.785Z,60.34
2023-04-24T16:13:01.196Z,57.63
2023-04-24T16:15:29.402Z,56.38
2023-04-24T16:17:58.587Z,56.02
2023-04-24T16:20:28.284Z,55.31
2023-04-24T16:22:56.542Z,56.30
2023-04-24T16:25:24.644Z,56.16
2023-04-24T16:27:52.891Z,54.94
2023-04-24T16:30:22.518Z,54.90
2023-04-24T16:32:51.041Z,55.70
2023-04-24T16:35:19.356Z,56.16
2023-04-24T16:37:47.631Z,55.88
2023-04-24T16:40:15.972Z,57.09
2023-04-24T16:42:44.085Z,58.02
2023-04-24T16:45:12.855Z,58.54
2023-04-24T16:47:42.785Z,58.96
2023-04-24T16:50:13.043Z,59.25
2023-04-24T16:52:41.258Z,59.82
2023-04-24T16:55:10.728Z,60.65
2023-04-24T16:57:38.889Z,60.07
2023-04-24T17:00:08.892Z,60.36
2023-04-24T17:02:37.538Z,59.35
2023-04-24T17:05:08.681Z,59.38
2023-04-24T17:07:37.081Z,60.21
2023-04-24T17:10:05.702Z,59.41
2023-04-24T17:12:34.607Z,59.89
2023-04-24T17:15:02.887Z,59.50
2023-04-24T17:17:31.025Z,59.57
2023-04-24T17:20:01.510Z,59.91
2023-04-24T17:22:33.070Z,60.13
2023-04-24T17:25:01.340Z,61.08
2023-04-24T17:27:30.849Z,61.90
2023-04-24T17:30:00.358Z,62.56
2023-04-24T17:32:28.818Z,62.65
2023-04-24T17:34:57.044Z,63.57
2023-04-24T17:37:25.475Z,64.04
2023-04-24T17:39:55.287Z,65.04
2023-04-24T17:42:23.409Z,65.67
2023-04-24T17:44:53.152Z,65.95
2023-04-24T17:47:22.887Z,66.17
2023-04-24T17:49:52.304Z,65.98
2023-04-24T17:52:20.453Z,65.64
2023-04-24T17:54:49.814Z,66.09
2023-04-24T17:57:19.761Z,66.71
2023-04-24T17:59:47.865Z,67.54
2023-04-24T18:02:16.577Z,67.67
2023-04-24T18:04:45.050Z,68.59
2023-04-24T18:07:13.302Z,69.03
2023-04-24T18:09:41.555Z,69.17
2023-04-24T18:12:27.028Z,70.08
2023-04-24T18:15:06.677Z,70.33
2023-04-24T18:17:41.869Z,71.12
2023-04-24T18:20:11.452Z,71.78
2023-04-24T18:22:41.004Z,72.28
2023-04-24T18:25:10.291Z,72.78
2023-04-24T18:27:39.066Z,73.75
2023-04-24T18:30:14.938Z,74.26
2023-04-24T18:32:43.952Z,74.23
2023-04-24T18:35:12.949Z,75.04
2023-04-24T18:37:41.846Z,77.54
2023-04-24T18:40:12.226Z,78.65
2023-04-24T18:42:41.061Z,79.29
2023-04-24T18:45:14.663Z,79.87
2023-04-24T18:47:44.003Z,79.87
2023-04-24T18:50:14.849Z,80.91
2023-04-24T18:52:43.575Z,81.43
2023-04-24T18:55:12.489Z,82.48
2023-04-24T18:57:40.756Z,83.30
2023-04-24T19:00:11.591Z,83.36
2023-04-24T19:02:40.758Z,82.96
2023-04-24T19:05:11.191Z,82.95
2023-04-24T19:07:41.093Z,83.52
2023-04-24T19:10:10.927Z,83.18
2023-04-24T19:12:39.745Z,83.32
2023-04-24T19:15:11.957Z,83.96
2023-04-24T19:17:42.773Z,84.59
2023-04-24T19:20:12.549Z,85.56
2023-04-24T19:22:41.250Z,87.04
2023-04-24T19:25:11.075Z,89.13
2023-04-24T19:27:39.744Z,92.54
2023-04-24T19:30:09.607Z,95.26
2023-04-24T19:32:38.288Z,97.85
2023-04-24T19:35:11.746Z,99.44
2023-04-24T19:37:42.105Z,100.00
2023-04-24T19:40:10.954Z,100.00
2023-04-24T19:42:43.819Z,100.00
2023-04-24T19:45:13.580Z,100.00
2023-04-24T19:47:42.536Z,100.00
2023-04-24T19:50:12.509Z,100.00
2023-04-24T19:52:40.910Z,100.00
2023-04-24T19:55:09.862Z,100.00
2023-04-24T19:57:38.226Z,100.00
2023-04-24T20:00:08.424Z,100.00
2023-04-24T20:02:37.125Z,100.00
2023-04-24T20:05:06.519Z,100.00
2023-04-24T20:07:36.465Z,100.00
2023-04-24T20:10:04.866Z,100.00
2023-04-24T20:12:33.088Z,100.00
2023-04-24T20:15:02.224Z,100.00
2023-04-24T20:17:30.628Z,100.00
2023-04-24T20:19:58.795Z,100.00
2023-04-24T20:22:26.951Z,100.00
2023-04-24T20:24:56.803Z,100.00
2023-04-24T20:27:25.054Z,100.00
2023-04-24T20:29:54.922Z,100.00
2023-04-24T20:32:24.674Z,100.00
2023-04-24T20:34:52.960Z,100.00
2023-04-24T20:37:21.300Z,100.00
2023-04-24T20:39:51.026Z,100.00
2023-04-24T20:42:20.831Z,100.00
2023-04-24T20:44:49.390Z,100.00
2023-04-24T20:47:17.519Z,100.00
2023-04-24T20:49:45.659Z,100.00
2023-04-24T20:52:13.913Z,100.00
2023-04-24T20:54:42.071Z,100.00
2023-04-24T20:57:10.491Z,100.00
2023-04-24T20:59:40.213Z,100.00
2023-04-24T21:02:08.954Z,100.00
2023-04-24T21:04:39.853Z,100.00
2023-04-24T21:07:09.396Z,100.00
2023-04-24T21:09:37.864Z,100.00
2023-04-24T21:12:06.409Z,100.00
2023-04-24T21:14:34.526Z,100.00
2023-04-24T21:17:04.299Z,100.00
2023-04-24T21:19:32.574Z,100.00
2023-04-24T21:22:00.794Z,100.00
2023-04-24T21:24:29.274Z,100.00
2023-04-24T21:26:57.490Z,100.00
2023-04-24T21:29:25.628Z,100.00
2023-04-24T21:31:54.309Z,100.00
2023-04-24T21:34:23.881Z,98.76
2023-04-24T21:36:52.070Z,98.31
2023-04-24T21:39:20.172Z,99.03
2023-04-24T21:41:48.680Z,99.88
2023-04-24T21:44:16.870Z,100.00
2023-04-24T21:46:45.273Z,100.00
2023-04-24T21:49:13.473Z,100.00
2023-04-24T21:51:43.074Z,100.00
2023-04-24T21:54:11.147Z,100.00
2023-04-24T21:56:41.532Z,100.00
2023-04-24T21:59:10.091Z,100.00
2023-04-24T22:01:38.611Z,100.00
2023-04-24T22:04:07.366Z,100.00
2023-04-24T22:06:35.587Z,100.00
2023-04-24T22:09:06.006Z,100.00
2023-04-24T22:11:34.175Z,100.00
2023-04-24T22:14:02.205Z,100.00
2023-04-24T22:16:31.254Z,100.00
2023-04-24T22:18:59.884Z,100.00
2023-04-24T22:21:29.123Z,100.00
2023-04-24T22:23:57.849Z,100.00
2023-04-24T22:26:27.339Z,100.00
2023-04-24T22:28:55.509Z,100.00
2023-04-24T22:31:23.770Z,100.00
2023-04-24T22:33:52.655Z,100.00
2023-04-24T22:36:21.534Z,100.00
2023-04-24T22:38:49.708Z,100.00
2023-04-24T22:41:18.049Z,100.00
2023-04-24T22:43:47.965Z,100.00
2023-04-24T22:46:16.327Z,100.00
2023-04-24T22:48:44.514Z,100.00
2023-04-24T22:51:12.724Z,100.00
2023-04-24T22:53:40.984Z,100.00
2023-04-24T22:56:09.233Z,100.00
2023-04-24T22:58:37.438Z,100.00
2023-04-24T23:01:07.151Z,100.00
2023-04-24T23:03:35.857Z,100.00
2023-04-24T23:06:04.432Z,100.00
2023-04-24T23:08:32.586Z,100.00
2023-04-24T23:11:02.006Z,100.00
2023-04-24T23:13:30.181Z,100.00
2023-04-24T23:15:58.504Z,100.00
2023-04-24T23:18:28.345Z,100.00
2023-04-24T23:20:56.510Z,100.00
2023-04-24T23:23:24.759Z,100.00
2023-04-24T23:25:52.755Z,100.00
2023-04-24T23:28:21.065Z,100.00
2023-04-24T23:30:49.227Z,100.00
2023-04-24T23:33:17.308Z,100.00
2023-04-24T23:35:46.947Z,100.00
2023-04-24T23:38:15.215Z,100.00
2023-04-24T23:40:43.566Z,100.00
2023-04-24T23:43:12.678Z,100.00
2023-04-24T23:45:40.852Z,100.00
2023-04-24T23:48:09.008Z,100.00
2023-04-24T23:50:37.216Z,100.00
2023-04-24T23:53:06.800Z,100.00
2023-04-24T23:55:34.952Z,100.00
2023-04-24T23:58:03.179Z,100.00
